Time;durP1;ratioP1;P1;durP2;ratioP2;P2;SDS_P1;SDS_P2;PMS_P1;PMS_P2;Temp;Humidity;BMP_temperature;BMP_pressure;BME280_temperature;BME280_humidity;BME280_pressure;Samples;Min_cycle;Max_cycle;Signal;HPM_P1;HPM_P2
2021/12/29 00:01:05;;;;;;;88.20;36.03;;;;;;;6.03;100.00;99984.88;4933961;29;20051;-71
2021/12/29 00:03:33;;;;;;;85.93;36.13;;;;;;;6.00;100.00;99982.66;4934818;29;20063;-71
2021/12/29 00:06:01;;;;;;;79.88;34.40;;;;;;;5.91;100.00;99977.72;4934903;29;20067;-71
2021/12/29 00:08:29;;;;;;;81.82;34.63;;;;;;;6.03;100.00;99979.44;4935155;29;20063;-71
2021/12/29 00:10:58;;;;;;;79.57;34.58;;;;;;;6.07;100.00;99982.44;4934453;29;20062;-71
2021/12/29 00:13:28;;;;;;;73.60;34.30;;;;;;;6.06;100.00;99978.91;4935350;29;20048;-71
2021/12/29 00:15:57;;;;;;;70.95;32.47;;;;;;;6.07;100.00;99982.44;4934686;29;20510;-71
2021/12/29 00:18:28;;;;;;;68.55;31.42;;;;;;;5.99;100.00;99989.16;4934699;29;20063;-71
2021/12/29 00:20:58;;;;;;;69.78;32.40;;;;;;;6.09;100.00;100000.13;4933436;29;20055;-71
2021/12/29 00:23:26;;;;;;;73.78;32.95;;;;;;;6.12;100.00;100005.00;4933881;29;20431;-71
2021/12/29 00:25:54;;;;;;;68.75;31.30;;;;;;;6.04;100.00;99992.78;4935038;29;20055;-71
2021/12/29 00:28:22;;;;;;;75.32;33.53;;;;;;;6.06;100.00;99984.34;4934399;29;20055;-72
2021/12/29 00:30:50;;;;;;;77.80;33.58;;;;;;;6.26;100.00;99988.25;4934229;29;20059;-71
2021/12/29 00:33:37;;;;;;;70.30;30.67;;;;;;;6.36;100.00;99985.56;4925038;29;20055;-71
2021/12/29 00:36:25;;;;;;;71.30;30.88;;;;;;;6.21;100.00;99989.03;4934445;29;20048;-71
2021/12/29 00:39:12;;;;;;;68.60;31.73;;;;;;;6.04;100.00;99992.78;4923083;29;20056;-71
2021/12/29 00:41:59;;;;;;;67.80;30.23;;;;;;;5.97;100.00;100002.19;4934224;29;20070;-71
2021/12/29 00:44:45;;;;;;;78.32;32.92;;;;;;;5.92;100.00;100008.44;4934191;29;20055;-71
2021/12/29 00:47:17;;;;;;;76.05;32.70;;;;;;;5.92;100.00;100000.28;4933271;29;20044;-71
2021/12/29 00:49:46;;;;;;;74.80;33.90;;;;;;;6.05;100.00;100010.69;4934492;29;20063;-71
2021/12/29 00:52:14;;;;;;;71.00;31.83;;;;;;;6.10;100.00;100012.63;4934078;29;20074;-71
2021/12/29 00:54:43;;;;;;;67.60;30.38;;;;;;;6.18;100.00;100006.69;4934757;29;20077;-72
2021/12/29 00:57:12;;;;;;;69.07;31.52;;;;;;;6.21;100.00;100001.81;4934094;29;20052;-72
2021/12/29 00:59:40;;;;;;;70.97;31.65;;;;;;;6.22;100.00;100003.44;4923687;29;20043;-72
2021/12/29 01:02:08;;;;;;;68.10;33.60;;;;;;;6.26;100.00;100010.00;4934376;29;20052;-71
2021/12/29 01:04:36;;;;;;;70.35;32.75;;;;;;;6.14;100.00;100010.19;4928086;29;20048;-71
2021/12/29 01:07:05;;;;;;;73.80;33.15;;;;;;;6.14;100.00;100012.91;4934307;29;20047;-71
2021/12/29 01:09:32;;;;;;;73.88;32.42;;;;;;;6.24;100.00;100014.84;4934628;29;20048;-71
2021/12/29 01:12:00;;;;;;;76.70;32.22;;;;;;;6.10;100.00;100015.34;4934231;29;20059;-71
2021/12/29 01:14:30;;;;;;;70.18;33.20;;;;;;;6.06;100.00;100008.78;4934159;29;20504;-71
2021/12/29 01:16:59;;;;;;;75.07;33.53;;;;;;;6.04;100.00;100013.69;4933953;29;20071;-71
2021/12/29 01:19:30;;;;;;;73.40;34.03;;;;;;;6.07;100.00;100015.88;4933992;29;20059;-71
2021/12/29 01:22:01;;;;;;;82.05;34.50;;;;;;;5.99;100.00;100010.91;4933155;29;20517;-71
2021/12/29 01:24:30;;;;;;;74.68;33.47;;;;;;;5.90;100.00;100016.84;4932281;29;20048;-71
2021/12/29 01:26:59;;;;;;;73.88;33.78;;;;;;;6.00;100.00;100017.97;4934188;29;20052;-71
2021/12/29 01:29:29;;;;;;;79.47;34.60;;;;;;;5.97;100.00;100018.50;4933571;29;20059;-71
2021/12/29 01:31:58;;;;;;;80.15;35.75;;;;;;;5.96;100.00;100020.38;4934174;29;20399;-71
2021/12/29 01:34:27;;;;;;;71.75;32.75;;;;;;;5.87;100.00;100011.91;4936220;29;20048;-71
2021/12/29 01:36:55;;;;;;;81.35;34.25;;;;;;;5.88;100.00;100018.97;4937993;29;20051;-71
2021/12/29 01:39:23;;;;;;;74.93;32.60;;;;;;;5.87;100.00;100014.63;4937301;29;20498;-71
2021/12/29 01:41:54;;;;;;;80.38;35.53;;;;;;;5.91;100.00;99998.63;4935871;29;20059;-71
2021/12/29 01:44:24;;;;;;;76.18;33.25;;;;;;;5.89;100.00;99998.91;4938138;29;20051;-71
2021/12/29 01:46:54;;;;;;;81.68;33.58;;;;;;;5.99;100.00;100019.03;4936990;29;20051;-71
2021/12/29 01:49:22;;;;;;;72.40;34.42;;;;;;;5.97;100.00;100021.22;4937108;29;20058;-71
2021/12/29 01:52:01;;;;;;;74.80;33.97;;;;;;;5.98;100.00;100020.13;4937415;29;20055;-71
2021/12/29 01:54:34;;;;;;;88.53;34.42;;;;;;;5.78;100.00;100025.16;4938075;29;20043;-71
2021/12/29 01:57:06;;;;;;;82.18;35.53;;;;;;;5.79;100.00;100023.28;4937615;29;20062;-71
2021/12/29 01:59:35;;;;;;;82.90;34.00;;;;;;;5.79;100.00;100028.72;4924557;29;20059;-71
2021/12/29 02:02:04;;;;;;;84.88;35.60;;;;;;;5.76;100.00;100034.66;4937320;29;20130;-71
2021/12/29 02:04:32;;;;;;;80.78;35.08;;;;;;;5.64;100.00;100035.66;4920325;29;20043;-71
2021/12/29 02:07:04;;;;;;;83.72;35.13;;;;;;;5.74;100.00;100020.53;4937268;29;20048;-71
2021/12/29 02:09:34;;;;;;;79.43;34.50;;;;;;;5.73;100.00;100025.13;4936913;29;20051;-74
2021/12/29 02:12:07;;;;;;;83.70;34.30;;;;;;;5.82;100.00;100022.75;4935748;29;20051;-71
2021/12/29 02:14:36;;;;;;;80.45;34.92;;;;;;;5.92;100.00;100022.81;4936988;29;20055;-71
2021/12/29 02:17:04;;;;;;;82.72;35.30;;;;;;;5.70;100.00;100014.81;4937204;29;20047;-71
2021/12/29 02:19:32;;;;;;;85.97;34.38;;;;;;;5.63;100.00;100009.59;4936867;29;20407;-71
2021/12/29 02:22:46;;;;;;;77.53;34.58;;;;;;;5.65;100.00;100012.06;4936685;29;20054;-71
2021/12/29 02:24:55;;;;;;;77.47;34.83;;;;;;;5.62;100.00;100012.59;4931432;29;20048;-71
2021/12/29 02:27:23;;;;;;;79.15;34.38;;;;;;;5.65;100.00;100007.44;4937337;29;20048;-72
2021/12/29 02:29:52;;;;;;;76.53;35.42;;;;;;;5.54;100.00;100011.16;4936410;29;20051;-71
2021/12/29 02:32:22;;;;;;;79.22;33.60;;;;;;;5.57;100.00;100009.84;4937267;29;20051;-71
2021/12/29 02:34:50;;;;;;;78.55;35.25;;;;;;;5.59;100.00;100003.06;4936126;29;20513;-71
2021/12/29 02:37:20;;;;;;;80.80;34.55;;;;;;;5.59;100.00;100008.50;4935923;29;20062;-71
2021/12/29 02:39:49;;;;;;;78.95;34.67;;;;;;;5.50;100.00;99996.47;4936549;29;20060;-71
2021/12/29 02:42:22;;;;;;;75.63;33.70;;;;;;;5.54;100.00;100003.03;4935030;29;20047;-71
2021/12/29 02:44:52;;;;;;;82.68;33.30;;;;;;;5.63;100.00;100006.88;4935672;29;20068;-71
2021/12/29 02:47:21;;;;;;;78.22;32.58;;;;;;;5.68;100.00;100000.69;4936445;29;20513;-71
2021/12/29 02:49:48;;;;;;;75.22;34.03;;;;;;;5.65;100.00;100001.19;4936035;29;20431;-71
2021/12/29 02:52:19;;;;;;;80.65;34.65;;;;;;;5.57;100.00;100015.25;4936085;29;20058;-71
2021/12/29 02:54:47;;;;;;;84.90;33.22;;;;;;;5.56;100.00;100002.75;4936491;29;20055;-71
2021/12/29 02:57:15;;;;;;;78.00;34.58;;;;;;;5.57;100.00;100004.41;4936622;29;20522;-71
2021/12/29 02:59:42;;;;;;;76.18;32.83;;;;;;;5.64;100.00;100002.28;4936296;29;20062;-71
2021/12/29 03:02:11;;;;;;;72.03;33.25;;;;;;;5.62;100.00;100004.44;4936062;29;20055;-71
2021/12/29 03:04:39;;;;;;;70.43;30.63;;;;;;;5.57;100.00;99997.06;4935882;29;20051;-71
2021/12/29 03:07:07;;;;;;;73.18;33.20;;;;;;;5.48;100.00;99991.31;4935577;29;20498;-71
2021/12/29 03:09:35;;;;;;;77.05;32.67;;;;;;;5.47;100.00;99999.72;4935951;29;20048;-71
2021/12/29 03:12:03;;;;;;;77.93;32.67;;;;;;;5.45;100.00;99996.44;4935956;29;20063;-71
2021/12/29 03:14:31;;;;;;;90.57;33.60;;;;;;;5.48;100.00;99985.06;4935939;29;20052;-71
2021/12/29 03:16:59;;;;;;;79.47;33.63;;;;;;;5.51;100.00;99984.53;4935927;29;20050;-71
2021/12/29 03:19:27;;;;;;;77.38;33.17;;;;;;;5.46;100.00;99990.75;4935514;29;20403;-71
2021/12/29 03:21:55;;;;;;;75.93;32.60;;;;;;;5.50;100.00;99993.75;4935735;29;20051;-71
2021/12/29 03:24:23;;;;;;;79.85;33.20;;;;;;;5.52;100.00;99986.16;4935657;29;20415;-71
2021/12/29 03:26:51;;;;;;;78.70;34.00;;;;;;;5.45;100.00;99989.13;4936024;29;20487;-71
2021/12/29 03:29:18;;;;;;;72.88;30.65;;;;;;;5.33;100.00;99999.34;4935428;29;20499;-71
2021/12/29 03:31:47;;;;;;;74.88;33.17;;;;;;;5.43;100.00;100002.13;4922486;29;20048;-71
2021/12/29 03:34:15;;;;;;;63.67;30.35;;;;;;;5.36;100.00;100005.06;4934738;29;20051;-71
2021/12/29 03:36:43;;;;;;;67.60;29.63;;;;;;;5.44;100.00;100008.38;4935181;29;20538;-71
2021/12/29 03:39:12;;;;;;;65.18;28.30;;;;;;;5.52;100.00;100026.88;4935095;29;20056;-71
2021/12/29 03:41:40;;;;;;;64.90;30.17;;;;;;;5.54;100.00;100029.34;4935975;29;20063;-71
2021/12/29 03:44:07;;;;;;;62.33;28.58;;;;;;;5.48;100.00;100023.06;4935101;29;20542;-71
2021/12/29 03:46:39;;;;;;;55.00;28.23;;;;;;;5.41;100.00;100030.59;4935324;29;20051;-71
2021/12/29 03:49:07;;;;;;;55.15;28.48;;;;;;;5.46;100.00;100023.31;4935000;29;20052;-71
2021/12/29 03:51:35;;;;;;;60.25;28.33;;;;;;;5.33;100.00;100019.13;4935805;29;20047;-71
2021/12/29 03:54:04;;;;;;;54.22;26.55;;;;;;;5.41;100.00;100025.16;4935252;29;20048;-71
2021/12/29 03:56:32;;;;;;;61.20;27.75;;;;;;;5.46;100.00;100019.78;4934970;29;20056;-71
2021/12/29 03:59:00;;;;;;;56.85;28.45;;;;;;;5.47;100.00;100024.94;4934828;29;20056;-71
2021/12/29 04:01:28;;;;;;;56.22;25.92;;;;;;;5.40;100.00;100032.50;4935319;29;20058;-71
2021/12/29 04:03:56;;;;;;;58.55;28.17;;;;;;;5.34;100.00;100020.75;4934749;29;20082;-71
2021/12/29 04:06:24;;;;;;;58.55;28.23;;;;;;;5.31;100.00;100034.03;4935027;29;20048;-71
2021/12/29 04:08:52;;;;;;;55.78;27.20;;;;;;;5.19;100.00;100042.34;4935364;29;20399;-71
2021/12/29 04:11:20;;;;;;;54.60;26.88;;;;;;;5.16;100.00;100042.84;4934751;29;20519;-71
2021/12/29 04:13:50;;;;;;;57.05;29.05;;;;;;;5.13;100.00;100048.81;4934618;29;20051;-71
2021/12/29 04:16:18;;;;;;;53.65;26.38;;;;;;;5.17;100.00;100044.47;4917848;29;20051;-71
2021/12/29 04:19:14;;;;;;;64.40;28.45;;;;;;;5.13;100.00;100049.59;4934846;29;20407;-71
2021/12/29 04:21:46;;;;;;;60.92;27.83;;;;;;;5.10;100.00;100045.50;4934499;29;20047;-71
2021/12/29 04:24:14;;;;;;;60.20;28.30;;;;;;;5.14;100.00;100040.41;4934324;29;20047;-71
2021/12/29 04:26:42;;;;;;;56.65;26.30;;;;;;;5.20;100.00;100044.81;4934666;29;20517;-71
2021/12/29 04:29:13;;;;;;;63.10;28.55;;;;;;;5.39;100.00;100049.88;4934154;29;20055;-71
2021/12/29 04:31:43;;;;;;;58.40;28.00;;;;;;;5.50;100.00;100037.19;4934261;29;20043;-71
2021/12/29 04:34:12;;;;;;;57.40;27.10;;;;;;;5.29;100.00;100037.03;4934753;29;20059;-71
2021/12/29 04:36:39;;;;;;;50.28;27.08;;;;;;;5.28;100.00;100037.28;4933963;29;20056;-71
2021/12/29 04:39:08;;;;;;;53.40;26.73;;;;;;;5.10;100.00;100034.66;4934483;29;20078;-71
2021/12/29 04:41:36;;;;;;;53.55;25.63;;;;;;;4.94;100.00;100036.41;4934644;29;20043;-71
2021/12/29 04:44:04;;;;;;;54.13;26.52;;;;;;;4.87;100.00;100049.34;4933566;29;20483;-71
2021/12/29 04:46:38;;;;;;;60.58;27.65;;;;;;;4.93;100.00;100051.03;4934327;29;20055;-71
2021/12/29 04:49:11;;;;;;;54.72;26.33;;;;;;;4.91;100.00;100055.09;4933902;29;20055;-71
2021/12/29 04:51:51;;;;;;;63.13;28.02;;;;;;;4.90;100.00;100053.44;4934467;29;20537;-71
2021/12/29 04:54:19;;;;;;;56.17;26.77;;;;;;;5.13;100.00;100056.94;4934425;29;20051;-71
2021/12/29 04:56:48;;;;;;;51.55;25.08;;;;;;;5.10;100.00;100055.56;4934420;29;20055;-71
2021/12/29 04:59:16;;;;;;;59.20;29.13;;;;;;;5.16;100.00;100048.28;4934320;29;20039;-71
2021/12/29 05:01:45;;;;;;;57.22;27.55;;;;;;;5.05;100.00;100053.63;4934452;29;20051;-71
2021/12/29 05:04:20;;;;;;;53.25;26.67;;;;;;;4.92;100.00;100048.59;4934317;29;20047;-71
2021/12/29 05:09:36;;;;;;;53.58;23.75;;;;;;;4.74;100.00;100061.41;4940057;29;20502;-71
2021/12/29 05:12:05;;;;;;;51.63;26.63;;;;;;;4.74;100.00;100045.13;4940199;29;20067;-71
2021/12/29 05:14:33;;;;;;;55.08;24.90;;;;;;;4.72;100.00;100044.59;4940563;29;20047;-71
2021/12/29 05:17:02;;;;;;;54.53;26.30;;;;;;;4.77;100.00;100060.09;4940669;29;20055;-71
2021/12/29 05:19:30;;;;;;;55.47;26.95;;;;;;;4.89;100.00;100068.09;4940414;29;20059;-71
2021/12/29 05:21:58;;;;;;;52.03;25.70;;;;;;;4.98;100.00;100063.84;4941421;29;20518;-71
2021/12/29 05:24:26;;;;;;;45.33;23.95;;;;;;;4.93;100.00;100078.16;4948318;29;21026;-71
2021/12/29 05:26:54;;;;;;;49.42;25.08;;;;;;;4.91;100.00;100079.50;4948511;29;20135;-71
2021/12/29 05:29:23;;;;;;;50.30;24.40;;;;;;;4.88;100.00;100069.97;4946539;28;20051;-71
2021/12/29 05:31:51;;;;;;;45.65;24.02;;;;;;;4.82;100.00;100076.41;4945202;29;20056;-71
2021/12/29 05:34:19;;;;;;;44.97;23.38;;;;;;;4.89;100.00;100090.59;4941570;29;20044;-71
2021/12/29 05:36:47;;;;;;;44.72;23.75;;;;;;;4.87;100.00;100089.19;4944498;29;20063;-71
2021/12/29 05:39:15;;;;;;;49.10;24.05;;;;;;;4.89;100.00;100081.66;4940206;29;20055;-71
2021/12/29 05:41:44;;;;;;;50.65;24.30;;;;;;;4.91;100.00;100085.75;4939351;29;20828;-71
2021/12/29 05:44:12;;;;;;;44.83;23.35;;;;;;;4.89;100.00;100081.66;4940575;29;20051;-71
2021/12/29 05:46:40;;;;;;;47.15;23.67;;;;;;;4.88;100.00;100099.78;4939960;29;20055;-71
2021/12/29 05:49:08;;;;;;;47.78;24.55;;;;;;;4.83;100.00;100100.56;4939008;29;20124;-71
2021/12/29 05:51:37;;;;;;;43.80;24.13;;;;;;;4.83;100.00;100102.44;4940507;29;20044;-71
2021/12/29 05:54:05;;;;;;;45.65;23.02;;;;;;;4.79;100.00;100106.75;4939682;29;20403;-71
2021/12/29 05:56:33;;;;;;;47.30;23.52;;;;;;;4.79;100.00;100109.47;4938693;29;20047;-71
2021/12/29 05:59:02;;;;;;;43.13;22.92;;;;;;;4.78;100.00;100105.94;4939898;29;20434;-71
2021/12/29 06:01:31;;;;;;;44.85;22.58;;;;;;;4.78;100.00;100122.19;4939839;29;20071;-71
2021/12/29 06:03:59;;;;;;;41.83;21.27;;;;;;;4.89;100.00;100130.47;4940214;29;20059;-71
2021/12/29 06:06:27;;;;;;;40.75;21.60;;;;;;;5.21;100.00;100135.97;4939470;29;20050;-72
2021/12/29 06:08:55;;;;;;;43.15;22.88;;;;;;;5.26;100.00;100135.19;4940277;29;20047;-72
2021/12/29 06:11:22;;;;;;;38.45;22.25;;;;;;;5.24;100.00;100142.78;4922796;29;20074;-72
2021/12/29 06:13:50;;;;;;;36.65;19.23;;;;;;;5.02;100.00;100140.91;4939114;29;20063;-72
2021/12/29 06:16:18;;;;;;;40.08;21.23;;;;;;;5.09;100.00;100140.72;4939686;29;20051;-72
2021/12/29 06:18:46;;;;;;;40.65;21.50;;;;;;;5.22;100.00;100131.34;4939708;29;20503;-71
2021/12/29 06:21:16;;;;;;;42.25;21.17;;;;;;;5.24;100.00;100134.66;4935787;29;20491;-71
2021/12/29 06:23:46;;;;;;;38.65;20.70;;;;;;;5.11;100.00;100133.97;4936398;29;20044;-72
2021/12/29 06:26:14;;;;;;;41.33;21.10;;;;;;;5.13;100.00;100124.75;4946364;29;20047;-72
2021/12/29 06:28:43;;;;;;;36.55;20.10;;;;;;;4.95;100.00;100126.72;4940160;29;20048;-72
2021/12/29 06:31:13;;;;;;;35.28;19.77;;;;;;;4.89;100.00;100131.25;4944603;29;20055;-72
2021/12/29 06:33:41;;;;;;;37.00;20.88;;;;;;;4.75;100.00;100130.84;4941262;29;20056;-73
2021/12/29 06:36:09;;;;;;;37.65;20.95;;;;;;;4.72;100.00;100115.06;4935622;29;20063;-73
2021/12/29 06:38:37;;;;;;;39.50;19.63;;;;;;;4.71;100.00;100118.84;4935855;29;20044;-73
2021/12/29 06:41:05;;;;;;;39.58;19.92;;;;;;;4.67;100.00;100104.16;4936215;29;20054;-73
2021/12/29 06:43:33;;;;;;;39.17;20.30;;;;;;;4.81;100.00;100119.00;4936217;29;20051;-71
2021/12/29 06:46:01;;;;;;;35.25;19.67;;;;;;;4.91;100.00;100117.44;4936457;29;20514;-72
2021/12/29 06:48:29;;;;;;;37.95;20.25;;;;;;;4.83;100.00;100122.25;4936008;29;20415;-72
2021/12/29 06:50:57;;;;;;;38.15;21.73;;;;;;;5.04;100.00;100124.38;4919667;29;20047;-72
2021/12/29 06:53:28;;;;;;;37.47;20.83;;;;;;;5.06;100.00;100142.06;4919838;29;20060;-72
2021/12/29 06:55:57;;;;;;;37.35;19.95;;;;;;;4.87;100.00;100135.28;4936286;29;20051;-72
2021/12/29 06:58:25;;;;;;;33.72;18.13;;;;;;;4.77;100.00;100150.38;4936124;29;20048;-72
2021/12/29 07:00:54;;;;;;;34.95;18.75;;;;;;;4.70;100.00;100153.25;4936251;29;20051;-72
2021/12/29 07:03:25;;;;;;;34.83;19.92;;;;;;;4.67;100.00;100150.22;4936296;29;20051;-71
2021/12/29 07:05:54;;;;;;;37.22;20.25;;;;;;;4.64;100.00;100172.44;4935890;29;20059;-71
2021/12/29 07:08:22;;;;;;;36.00;20.20;;;;;;;4.58;100.00;100163.41;4936456;29;20380;-71
2021/12/29 07:10:50;;;;;;;33.40;21.10;;;;;;;4.66;100.00;100170.28;4935671;29;20052;-71
2021/12/29 07:13:18;;;;;;;38.35;21.73;;;;;;;4.68;100.00;100176.25;4935901;29;20055;-71
2021/12/29 07:15:46;;;;;;;40.55;23.02;;;;;;;4.81;100.00;100172.38;4936125;29;20052;-71
2021/12/29 07:18:15;;;;;;;36.72;22.35;;;;;;;4.83;100.00;100165.63;4935085;29;20084;-72
2021/12/29 07:20:44;;;;;;;44.10;20.77;;;;;;;4.66;100.00;100173.00;4935891;29;20063;-71
2021/12/29 07:23:12;;;;;;;38.35;20.92;;;;;;;4.74;100.00;100172.56;4934959;29;20067;-71
2021/12/29 07:25:40;;;;;;;40.90;21.55;;;;;;;4.79;100.00;100164.50;4936076;29;20044;-71
2021/12/29 07:28:08;;;;;;;37.97;20.13;;;;;;;4.76;100.00;100175.03;4920598;29;20044;-71
2021/12/29 07:30:36;;;;;;;39.72;22.17;;;;;;;5.04;100.00;100171.31;4935425;29;20063;-71
2021/12/29 07:33:04;;;;;;;40.28;20.48;;;;;;;4.87;100.00;100179.50;4934985;29;20055;-72
2021/12/29 07:35:32;;;;;;;38.60;20.75;;;;;;;4.76;100.00;100197.53;4934974;29;20048;-72
2021/12/29 07:38:00;;;;;;;44.90;22.70;;;;;;;4.78;100.00;100186.41;4935651;29;20071;-72
2021/12/29 07:40:28;;;;;;;41.90;21.67;;;;;;;4.76;100.00;100194.00;4935290;29;20048;-71
2021/12/29 07:42:56;;;;;;;37.80;19.92;;;;;;;4.79;100.00;100204.34;4919090;29;20048;-72
2021/12/29 07:45:26;;;;;;;34.55;19.60;;;;;;;4.80;100.00;100212.22;4935107;29;20051;-71
2021/12/29 07:47:54;;;;;;;36.33;19.38;;;;;;;4.84;100.00;100210.66;4934238;29;20067;-72
2021/12/29 07:50:23;;;;;;;41.45;20.98;;;;;;;4.84;100.00;100207.94;4934726;29;20058;-72
2021/12/29 07:52:59;;;;;;;40.90;21.55;;;;;;;4.84;100.00;100224.22;4933885;29;20044;-71
2021/12/29 07:55:27;;;;;;;43.13;21.70;;;;;;;4.93;100.00;100224.59;4934744;29;20525;-72
2021/12/29 07:57:57;;;;;;;40.17;21.92;;;;;;;4.88;100.00;100212.88;4933826;29;20048;-72
2021/12/29 08:00:27;;;;;;;40.42;20.92;;;;;;;5.11;100.00;100207.22;4935252;29;20052;-71
2021/12/29 08:02:55;;;;;;;45.55;21.63;;;;;;;5.21;100.00;100213.81;4934249;29;20052;-71
2021/12/29 08:05:23;;;;;;;43.00;21.80;;;;;;;5.25;100.00;100209.53;4933717;29;20051;-72
2021/12/29 08:07:51;;;;;;;35.83;20.13;;;;;;;5.25;100.00;100214.97;4935901;29;20048;-72
2021/12/29 08:10:20;;;;;;;40.28;21.67;;;;;;;5.41;100.00;100217.84;4932268;29;20066;-71
2021/12/29 08:12:49;;;;;;;38.28;20.67;;;;;;;5.48;100.00;100223.91;4919947;29;20730;-71
2021/12/29 08:15:17;;;;;;;38.53;20.38;;;;;;;5.44;100.00;100230.91;4931970;29;20058;-71
2021/12/29 08:17:51;;;;;;;39.55;21.77;;;;;;;5.42;100.00;100241.22;4932639;29;20565;-72
2021/12/29 08:20:18;;;;;;;36.85;20.23;;;;;;;5.41;100.00;100244.97;4931630;29;20499;-71
2021/12/29 08:22:47;;;;;;;39.65;19.95;;;;;;;5.61;100.00;100231.66;4936173;29;20047;-72
2021/12/29 08:25:15;;;;;;;39.70;20.73;;;;;;;5.87;100.00;100231.09;4931945;29;20044;-71
2021/12/29 08:27:43;;;;;;;37.17;20.42;;;;;;;5.71;100.00;100240.97;4929207;29;20141;-72
2021/12/29 08:30:12;;;;;;;39.22;20.75;;;;;;;5.68;100.00;100246.91;4933982;29;20046;-71
2021/12/29 08:32:40;;;;;;;39.28;21.83;;;;;;;5.62;100.00;100252.28;4933121;29;20141;-71
2021/12/29 08:35:08;;;;;;;38.38;20.55;;;;;;;5.62;100.00;100257.72;4933998;29;20059;-71
2021/12/29 08:37:37;;;;;;;41.28;21.70;;;;;;;5.71;100.00;100262.72;4930886;29;20048;-72
2021/12/29 08:40:07;;;;;;;39.33;20.30;;;;;;;5.78;100.00;100257.88;4933775;29;20052;-71
2021/12/29 08:42:36;;;;;;;37.25;18.55;;;;;;;6.12;100.00;100244.09;4930193;29;20090;-71
2021/12/29 08:45:10;;;;;;;37.20;21.15;;;;;;;6.02;100.00;100244.00;4933142;29;20039;-71
2021/12/29 08:47:39;;;;;;;39.20;19.55;;;;;;;5.94;100.00;100249.88;4932538;29;20129;-71
2021/12/29 08:50:12;;;;;;;37.72;20.30;;;;;;;6.00;100.00;100267.88;4932787;29;20648;-71
2021/12/29 08:52:41;;;;;;;37.85;20.48;;;;;;;6.06;100.00;100261.44;4932437;29;20509;-71
2021/12/29 08:55:12;;;;;;;42.97;20.75;;;;;;;6.20;100.00;100269.19;4931616;29;20062;-71
2021/12/29 08:57:41;;;;;;;37.67;20.48;;;;;;;6.24;100.00;100273.84;4931596;29;20039;-71
2021/12/29 09:00:14;;;;;;;38.22;20.77;;;;;;;6.16;100.00;100271.59;4929884;29;20048;-72
2021/12/29 09:02:43;;;;;;;42.42;20.98;;;;;;;6.13;100.00;100267.50;4932447;29;20047;-71
2021/12/29 09:05:12;;;;;;;37.65;21.35;;;;;;;6.07;100.00;100268.53;4933564;29;20056;-72
2021/12/29 09:07:40;;;;;;;40.65;19.83;;;;;;;6.27;100.00;100275.22;4934559;29;20403;-72
2021/12/29 09:10:10;;;;;;;37.95;19.42;;;;;;;6.54;100.00;100268.88;4932005;29;20510;-71
2021/12/29 09:12:38;;;;;;;41.75;19.92;;;;;;;6.72;100.00;100273.13;4932693;29;20062;-71
2021/12/29 09:15:08;;;;;;;45.08;21.23;;;;;;;6.62;100.00;100286.63;4932513;29;20043;-71
2021/12/29 09:17:38;;;;;;;43.67;21.15;;;;;;;6.82;100.00;100277.78;4936460;29;20055;-71
2021/12/29 09:20:14;;;;;;;39.78;21.10;;;;;;;6.88;100.00;100286.81;4932989;29;20051;-72
2021/12/29 09:22:43;;;;;;;44.83;21.77;;;;;;;6.84;100.00;100284.63;4933528;29;20063;-71
2021/12/29 09:25:11;;;;;;;43.85;21.63;;;;;;;6.62;100.00;100273.88;4930365;29;20059;-71
2021/12/29 09:27:47;;;;;;;47.88;23.48;;;;;;;6.16;100.00;100274.31;4934218;29;20051;-72
2021/12/29 09:30:16;;;;;;;46.40;22.38;;;;;;;6.30;100.00;100288.28;4932686;29;20048;-71
2021/12/29 09:32:43;;;;;;;45.00;21.20;;;;;;;6.23;100.00;100303.97;4933764;29;20063;-71
2021/12/29 09:35:12;;;;;;;48.28;23.17;;;;;;;6.27;100.00;100299.69;4932924;29;20254;-72
2021/12/29 09:37:40;;;;;;;45.10;21.70;;;;;;;6.28;100.00;100282.28;4933783;29;20047;-72
2021/12/29 09:40:11;;;;;;;49.05;22.33;;;;;;;6.37;100.00;100286.19;4932742;29;20133;-72
2021/12/29 09:42:41;;;;;;;48.47;22.77;;;;;;;6.41;100.00;100281.84;4938881;29;20047;-72
2021/12/29 09:45:09;;;;;;;51.55;23.45;;;;;;;6.37;100.00;100286.19;4932559;29;20047;-71
2021/12/29 09:47:37;;;;;;;48.65;22.80;;;;;;;6.07;100.00;100292.97;4934425;29;20059;-71
2021/12/29 09:50:10;;;;;;;51.85;22.20;;;;;;;6.26;100.00;100298.03;4938723;29;20047;-72
2021/12/29 09:52:40;;;;;;;54.97;23.52;;;;;;;6.27;100.00;100300.47;4933842;29;20043;-72
2021/12/29 09:55:11;;;;;;;47.67;20.85;;;;;;;6.34;100.00;100305.72;4937666;29;20064;-72
2021/12/29 09:57:45;;;;;;;45.60;21.95;;;;;;;5.99;100.00;100293.38;4936358;29;20051;-72
2021/12/29 10:00:40;;;;;;;46.78;21.98;;;;;;;6.12;100.00;100297.63;4935753;29;20056;-71
2021/12/29 10:03:13;;;;;;;51.22;23.30;;;;;;;5.92;100.00;100291.69;4932363;29;20055;-71
2021/12/29 10:05:43;;;;;;;51.60;24.88;;;;;;;6.07;100.00;100289.44;4934564;29;20411;-72
2021/12/29 10:08:17;;;;;;;56.13;25.00;;;;;;;6.03;100.00;100286.41;4934021;29;20655;-71
2021/12/29 10:10:51;;;;;;;57.05;24.70;;;;;;;6.07;100.00;100273.13;4936334;29;20056;-71
2021/12/29 10:13:22;;;;;;;54.50;24.88;;;;;;;6.21;100.00;100276.25;4934539;29;20090;-72
2021/12/29 10:15:59;;;;;;;59.38;24.73;;;;;;;6.20;100.00;100293.63;4919466;29;20067;-72
2021/12/29 10:18:30;;;;;;;68.43;26.70;;;;;;;6.34;100.00;100303.00;4933934;29;20051;-72
2021/12/29 10:21:01;;;;;;;56.88;27.40;;;;;;;6.18;100.00;100291.16;4934754;29;20044;-73
2021/12/29 10:23:32;;;;;;;55.58;25.17;;;;;;;6.30;100.00;100293.72;4936310;29;20048;-72
2021/12/29 10:26:06;;;;;;;59.05;25.75;;;;;;;6.34;100.00;100291.31;4901992;29;20439;-72
2021/12/29 10:28:36;;;;;;;55.10;25.63;;;;;;;6.39;100.00;100291.34;4935192;29;20052;-72
2021/12/29 10:31:05;;;;;;;51.67;25.17;;;;;;;6.39;100.00;100294.06;4936115;29;20388;-72
2021/12/29 10:33:45;;;;;;;60.88;27.38;;;;;;;6.52;100.00;100298.25;4934156;29;20055;-72
2021/12/29 10:36:52;;;;;;;58.58;25.15;;;;;;;6.69;100.00;100293.50;4934874;29;20055;-72
2021/12/29 10:39:27;;;;;;;57.30;24.55;;;;;;;6.59;100.00;100296.97;4913855;29;20055;-72
2021/12/29 10:42:01;;;;;;;50.45;23.58;;;;;;;6.63;100.00;100297.25;4936575;29;20047;-71
2021/12/29 10:44:34;;;;;;;52.30;25.13;;;;;;;6.87;100.00;100296.88;4930063;29;20538;-74
2021/12/29 10:47:16;;;;;;;54.25;23.63;;;;;;;6.91;100.00;100300.72;4936816;29;20083;-72
2021/12/29 10:50:09;;;;;;;62.50;29.35;;;;;;;7.03;100.00;100292.34;4935875;29;20526;-72
2021/12/29 10:52:47;;;;;;;52.22;24.35;;;;;;;7.01;100.00;100296.41;4936887;29;21298;-72
2021/12/29 10:55:25;;;;;;;56.88;24.55;;;;;;;6.76;100.00;100296.00;4935069;29;20059;-73
2021/12/29 10:58:14;;;;;;;57.65;24.73;;;;;;;6.74;100.00;100289.19;4934777;29;20048;-72
2021/12/29 11:01:05;;;;;;;58.22;25.02;;;;;;;6.65;100.00;100294.28;4937862;29;20047;-72
2021/12/29 11:03:41;;;;;;;61.15;25.75;;;;;;;6.62;100.00;100305.66;4935305;29;20380;-73
2021/12/29 11:06:13;;;;;;;61.90;24.88;;;;;;;6.80;100.00;100312.59;4935987;29;20448;-72
2021/12/29 11:09:02;;;;;;;54.30;26.88;;;;;;;6.84;100.00;100305.53;4934277;29;20043;-72
2021/12/29 11:11:36;;;;;;;53.03;24.88;;;;;;;6.74;100.00;100306.28;4931976;29;20052;-72
2021/12/29 11:14:17;;;;;;;50.63;24.90;;;;;;;6.82;100.00;100303.09;4934316;29;20047;-72
2021/12/29 11:16:52;;;;;;;49.08;24.13;;;;;;;6.83;100.00;100290.31;4931711;29;20044;-72
2021/12/29 11:19:21;;;;;;;55.85;25.05;;;;;;;6.78;100.00;100298.44;4901300;29;20074;-72
2021/12/29 11:21:50;;;;;;;46.58;23.45;;;;;;;6.76;100.00;100287.00;4935128;29;20054;-72
2021/12/29 11:24:23;;;;;;;53.03;24.95;;;;;;;6.79;100.00;100297.38;4935071;29;20522;-72
2021/12/29 11:26:51;;;;;;;50.63;25.00;;;;;;;6.73;100.00;100301.94;4934149;29;20067;-72